sensor_id;sensor_type;location;lat;lon;timestamp;P1;durP1;ratioP1;P2;durP2;ratioP2
30398;SDS011;17195;50.838;7.214;2022-12-10T00:00:35;43.08;;;24.40;;
30398;SDS011;17195;50.838;7.214;2022-12-10T00:03:01;41.47;;;24.95;;
30398;SDS011;17195;50.838;7.214;2022-12-10T00:05:27;42.95;;;25.05;;
30398;SDS011;17195;50.838;7.214;2022-12-10T00:07:52;45.25;;;25.00;;
30398;SDS011;17195;50.838;7.214;2022-12-10T00:10:18;40.92;;;23.98;;
30398;SDS011;17195;50.838;7.214;2022-12-10T00:12:43;42.95;;;24.33;;
30398;SDS011;17195;50.838;7.214;2022-12-10T00:15:09;41.15;;;24.58;;
30398;SDS011;17195;50.838;7.214;2022-12-10T00:17:35;45.97;;;25.80;;
30398;SDS011;17195;50.838;7.214;2022-12-10T00:20:01;49.03;;;26.20;;
30398;SDS011;17195;50.838;7.214;2022-12-10T00:22:27;41.67;;;24.55;;
30398;SDS011;17195;50.838;7.214;2022-12-10T00:24:52;47.22;;;26.08;;
30398;SDS011;17195;50.838;7.214;2022-12-10T00:27:18;40.67;;;24.13;;
30398;SDS011;17195;50.838;7.214;2022-12-10T00:29:43;39.25;;;23.40;;
30398;SDS011;17195;50.838;7.214;2022-12-10T00:32:09;39.85;;;23.27;;
30398;SDS011;17195;50.838;7.214;2022-12-10T00:34:34;40.33;;;22.92;;
30398;SDS011;17195;50.838;7.214;2022-12-10T00:37:00;38.25;;;22.35;;
30398;SDS011;17195;50.838;7.214;2022-12-10T00:39:25;38.55;;;23.10;;
30398;SDS011;17195;50.838;7.214;2022-12-10T00:41:51;41.45;;;22.40;;
30398;SDS011;17195;50.838;7.214;2022-12-10T00:44:17;36.85;;;21.45;;
30398;SDS011;17195;50.838;7.214;2022-12-10T00:46:42;40.92;;;21.63;;
30398;SDS011;17195;50.838;7.214;2022-12-10T00:49:08;44.58;;;23.70;;
30398;SDS011;17195;50.838;7.214;2022-12-10T00:51:34;41.05;;;23.10;;
30398;SDS011;17195;50.838;7.214;2022-12-10T00:54:00;38.08;;;22.00;;
30398;SDS011;17195;50.838;7.214;2022-12-10T00:56:27;40.20;;;22.80;;
30398;SDS011;17195;50.838;7.214;2022-12-10T00:58:54;38.53;;;22.35;;
30398;SDS011;17195;50.838;7.214;2022-12-10T01:03:52;38.55;;;22.25;;
30398;SDS011;17195;50.838;7.214;2022-12-10T01:06:21;40.90;;;22.38;;
30398;SDS011;17195;50.838;7.214;2022-12-10T01:08:53;39.13;;;22.65;;
30398;SDS011;17195;50.838;7.214;2022-12-10T01:11:21;38.13;;;22.02;;
30398;SDS011;17195;50.838;7.214;2022-12-10T01:13:49;39.00;;;22.08;;
30398;SDS011;17195;50.838;7.214;2022-12-10T01:16:17;39.53;;;21.15;;
30398;SDS011;17195;50.838;7.214;2022-12-10T01:18:44;39.53;;;21.92;;
30398;SDS011;17195;50.838;7.214;2022-12-10T01:21:11;34.72;;;21.13;;
30398;SDS011;17195;50.838;7.214;2022-12-10T01:23:39;36.65;;;21.38;;
30398;SDS011;17195;50.838;7.214;2022-12-10T01:26:08;38.17;;;20.52;;
30398;SDS011;17195;50.838;7.214;2022-12-10T01:28:37;37.55;;;21.80;;
30398;SDS011;17195;50.838;7.214;2022-12-10T01:31:05;38.38;;;21.15;;
30398;SDS011;17195;50.838;7.214;2022-12-10T01:33:41;32.78;;;20.17;;
30398;SDS011;17195;50.838;7.214;2022-12-10T01:36:12;37.88;;;21.38;;
30398;SDS011;17195;50.838;7.214;2022-12-10T01:38:42;37.67;;;20.98;;
30398;SDS011;17195;50.838;7.214;2022-12-10T01:41:10;34.95;;;20.85;;
30398;SDS011;17195;50.838;7.214;2022-12-10T01:43:56;36.90;;;20.67;;
30398;SDS011;17195;50.838;7.214;2022-12-10T01:46:25;34.42;;;20.55;;
30398;SDS011;17195;50.838;7.214;2022-12-10T01:48:52;33.55;;;20.33;;
30398;SDS011;17195;50.838;7.214;2022-12-10T01:51:19;34.78;;;20.95;;
30398;SDS011;17195;50.838;7.214;2022-12-10T01:53:45;37.35;;;20.92;;
30398;SDS011;17195;50.838;7.214;2022-12-10T01:56:12;34.25;;;20.30;;
30398;SDS011;17195;50.838;7.214;2022-12-10T01:58:40;34.42;;;20.42;;
30398;SDS011;17195;50.838;7.214;2022-12-10T02:01:11;33.45;;;21.05;;
30398;SDS011;17195;50.838;7.214;2022-12-10T02:09:09;35.70;;;20.20;;
30398;SDS011;17195;50.838;7.214;2022-12-10T02:11:42;35.33;;;20.98;;
30398;SDS011;17195;50.838;7.214;2022-12-10T02:14:16;35.92;;;21.63;;
30398;SDS011;17195;50.838;7.214;2022-12-10T02:16:56;33.33;;;20.15;;
30398;SDS011;17195;50.838;7.214;2022-12-10T02:19:43;35.58;;;20.38;;
30398;SDS011;17195;50.838;7.214;2022-12-10T02:22:17;45.50;;;24.17;;
30398;SDS011;17195;50.838;7.214;2022-12-10T02:24:46;38.70;;;22.77;;
30398;SDS011;17195;50.838;7.214;2022-12-10T02:27:22;34.05;;;20.25;;
30398;SDS011;17195;50.838;7.214;2022-12-10T02:29:55;36.88;;;20.52;;
30398;SDS011;17195;50.838;7.214;2022-12-10T02:32:26;37.30;;;20.85;;
30398;SDS011;17195;50.838;7.214;2022-12-10T02:34:58;37.53;;;21.20;;
30398;SDS011;17195;50.838;7.214;2022-12-10T02:37:36;39.22;;;20.65;;
30398;SDS011;17195;50.838;7.214;2022-12-10T02:40:22;37.25;;;21.20;;
30398;SDS011;17195;50.838;7.214;2022-12-10T02:42:51;34.17;;;21.02;;
30398;SDS011;17195;50.838;7.214;2022-12-10T02:45:18;38.75;;;20.92;;
30398;SDS011;17195;50.838;7.214;2022-12-10T02:47:47;31.83;;;20.45;;
30398;SDS011;17195;50.838;7.214;2022-12-10T02:50:14;37.13;;;20.38;;
30398;SDS011;17195;50.838;7.214;2022-12-10T02:52:43;38.40;;;21.88;;
30398;SDS011;17195;50.838;7.214;2022-12-10T02:55:11;40.58;;;22.65;;
30398;SDS011;17195;50.838;7.214;2022-12-10T02:57:43;40.88;;;23.05;;
30398;SDS011;17195;50.838;7.214;2022-12-10T03:00:20;37.75;;;22.23;;
30398;SDS011;17195;50.838;7.214;2022-12-10T03:05:46;36.65;;;20.90;;
30398;SDS011;17195;50.838;7.214;2022-12-10T03:08:26;42.05;;;22.65;;
30398;SDS011;17195;50.838;7.214;2022-12-10T03:11:00;38.30;;;21.92;;
30398;SDS011;17195;50.838;7.214;2022-12-10T03:13:37;42.55;;;22.60;;
30398;SDS011;17195;50.838;7.214;2022-12-10T03:16:08;36.20;;;21.05;;
30398;SDS011;17195;50.838;7.214;2022-12-10T03:18:35;41.00;;;22.52;;
30398;SDS011;17195;50.838;7.214;2022-12-10T03:21:03;38.67;;;21.35;;
30398;SDS011;17195;50.838;7.214;2022-12-10T03:23:30;40.05;;;21.52;;
30398;SDS011;17195;50.838;7.214;2022-12-10T03:25:59;37.45;;;21.73;;
30398;SDS011;17195;50.838;7.214;2022-12-10T03:28:27;38.17;;;21.75;;
30398;SDS011;17195;50.838;7.214;2022-12-10T03:30:57;40.28;;;22.20;;
30398;SDS011;17195;50.838;7.214;2022-12-10T03:33:22;39.10;;;21.65;;
30398;SDS011;17195;50.838;7.214;2022-12-10T03:35:48;37.55;;;20.73;;
30398;SDS011;17195;50.838;7.214;2022-12-10T03:38:14;38.88;;;20.67;;
30398;SDS011;17195;50.838;7.214;2022-12-10T03:40:40;38.65;;;22.50;;
30398;SDS011;17195;50.838;7.214;2022-12-10T03:43:06;37.80;;;21.10;;
30398;SDS011;17195;50.838;7.214;2022-12-10T03:45:32;33.58;;;20.77;;
30398;SDS011;17195;50.838;7.214;2022-12-10T03:47:57;37.88;;;21.17;;
30398;SDS011;17195;50.838;7.214;2022-12-10T03:50:23;39.53;;;21.25;;
30398;SDS011;17195;50.838;7.214;2022-12-10T03:52:48;39.55;;;22.15;;
30398;SDS011;17195;50.838;7.214;2022-12-10T03:55:14;40.47;;;20.98;;
30398;SDS011;17195;50.838;7.214;2022-12-10T03:57:39;34.45;;;20.08;;
30398;SDS011;17195;50.838;7.214;2022-12-10T04:00:05;35.97;;;21.00;;
30398;SDS011;17195;50.838;7.214;2022-12-10T04:02:32;35.17;;;20.42;;
30398;SDS011;17195;50.838;7.214;2022-12-10T04:04:57;37.70;;;21.40;;
30398;SDS011;17195;50.838;7.214;2022-12-10T04:07:23;34.85;;;20.92;;
30398;SDS011;17195;50.838;7.214;2022-12-10T04:09:48;40.10;;;21.17;;
30398;SDS011;17195;50.838;7.214;2022-12-10T04:12:14;39.63;;;21.90;;
30398;SDS011;17195;50.838;7.214;2022-12-10T04:14:40;37.65;;;21.88;;
30398;SDS011;17195;50.838;7.214;2022-12-10T04:17:24;39.83;;;22.33;;
30398;SDS011;17195;50.838;7.214;2022-12-10T04:19:49;33.40;;;20.48;;
30398;SDS011;17195;50.838;7.214;2022-12-10T04:22:15;39.53;;;22.63;;
30398;SDS011;17195;50.838;7.214;2022-12-10T04:24:59;41.30;;;21.63;;
30398;SDS011;17195;50.838;7.214;2022-12-10T04:27:51;37.00;;;20.73;;
30398;SDS011;17195;50.838;7.214;2022-12-10T04:30:16;37.88;;;21.27;;
30398;SDS011;17195;50.838;7.214;2022-12-10T04:32:42;44.38;;;22.95;;
30398;SDS011;17195;50.838;7.214;2022-12-10T04:35:08;38.67;;;21.73;;
30398;SDS011;17195;50.838;7.214;2022-12-10T04:37:33;37.78;;;21.30;;
30398;SDS011;17195;50.838;7.214;2022-12-10T04:39:59;37.60;;;20.90;;
30398;SDS011;17195;50.838;7.214;2022-12-10T04:42:24;34.90;;;20.77;;
30398;SDS011;17195;50.838;7.214;2022-12-10T04:44:50;41.17;;;20.77;;
30398;SDS011;17195;50.838;7.214;2022-12-10T04:47:16;37.53;;;21.00;;
30398;SDS011;17195;50.838;7.214;2022-12-10T04:49:41;38.92;;;21.77;;
30398;SDS011;17195;50.838;7.214;2022-12-10T04:52:07;39.33;;;20.30;;
30398;SDS011;17195;50.838;7.214;2022-12-10T04:54:36;42.97;;;21.50;;
30398;SDS011;17195;50.838;7.214;2022-12-10T04:57:01;38.75;;;20.98;;
30398;SDS011;17195;50.838;7.214;2022-12-10T04:59:27;36.08;;;19.83;;
30398;SDS011;17195;50.838;7.214;2022-12-10T05:01:52;37.03;;;20.85;;
30398;SDS011;17195;50.838;7.214;2022-12-10T05:04:18;38.60;;;21.05;;
30398;SDS011;17195;50.838;7.214;2022-12-10T05:06:44;35.80;;;19.60;;
30398;SDS011;17195;50.838;7.214;2022-12-10T05:09:10;34.05;;;18.40;;
30398;SDS011;17195;50.838;7.214;2022-12-10T05:11:36;38.17;;;20.13;;
30398;SDS011;17195;50.838;7.214;2022-12-10T05:14:02;37.80;;;19.90;;
30398;SDS011;17195;50.838;7.214;2022-12-10T05:16:29;35.65;;;19.85;;
30398;SDS011;17195;50.838;7.214;2022-12-10T05:18:56;33.45;;;18.95;;
30398;SDS011;17195;50.838;7.214;2022-12-10T05:21:22;33.85;;;18.95;;
30398;SDS011;17195;50.838;7.214;2022-12-10T05:23:50;34.47;;;18.27;;
30398;SDS011;17195;50.838;7.214;2022-12-10T05:26:18;34.40;;;19.23;;
30398;SDS011;17195;50.838;7.214;2022-12-10T05:28:52;36.85;;;18.92;;
30398;SDS011;17195;50.838;7.214;2022-12-10T05:31:23;35.38;;;19.20;;
30398;SDS011;17195;50.838;7.214;2022-12-10T05:33:50;36.60;;;19.33;;
30398;SDS011;17195;50.838;7.214;2022-12-10T05:36:17;35.25;;;18.95;;
30398;SDS011;17195;50.838;7.214;2022-12-10T05:38:45;37.22;;;20.58;;
30398;SDS011;17195;50.838;7.214;2022-12-10T05:41:13;38.92;;;20.45;;
30398;SDS011;17195;50.838;7.214;2022-12-10T05:43:44;36.20;;;18.90;;
30398;SDS011;17195;50.838;7.214;2022-12-10T05:46:11;35.10;;;20.00;;
30398;SDS011;17195;50.838;7.214;2022-12-10T05:48:38;35.35;;;19.02;;
30398;SDS011;17195;50.838;7.214;2022-12-10T05:51:08;35.22;;;19.02;;
30398;SDS011;17195;50.838;7.214;2022-12-10T05:53:35;33.78;;;18.83;;
30398;SDS011;17195;50.838;7.214;2022-12-10T05:56:05;34.45;;;19.40;;
30398;SDS011;17195;50.838;7.214;2022-12-10T05:58:36;32.17;;;18.20;;
30398;SDS011;17195;50.838;7.214;2022-12-10T06:01:07;36.20;;;19.90;;
30398;SDS011;17195;50.838;7.214;2022-12-10T06:03:38;38.40;;;19.13;;
30398;SDS011;17195;50.838;7.214;2022-12-10T06:06:04;35.45;;;19.35;;
30398;SDS011;17195;50.838;7.214;2022-12-10T06:08:30;38.25;;;19.70;;
30398;SDS011;17195;50.838;7.214;2022-12-10T06:11:00;36.60;;;19.27;;
30398;SDS011;17195;50.838;7.214;2022-12-10T06:13:27;38.58;;;18.63;;
30398;SDS011;17195;50.838;7.214;2022-12-10T06:15:52;36.08;;;19.15;;
30398;SDS011;17195;50.838;7.214;2022-12-10T06:18:18;36.97;;;19.92;;
30398;SDS011;17195;50.838;7.214;2022-12-10T06:20:43;37.33;;;19.65;;
30398;SDS011;17195;50.838;7.214;2022-12-10T06:23:09;36.05;;;19.60;;
30398;SDS011;17195;50.838;7.214;2022-12-10T06:25:37;35.90;;;18.98;;
30398;SDS011;17195;50.838;7.214;2022-12-10T06:28:03;37.05;;;19.55;;
30398;SDS011;17195;50.838;7.214;2022-12-10T06:30:29;38.20;;;19.08;;
30398;SDS011;17195;50.838;7.214;2022-12-10T06:32:55;38.05;;;19.75;;
30398;SDS011;17195;50.838;7.214;2022-12-10T06:35:20;35.75;;;19.23;;
30398;SDS011;17195;50.838;7.214;2022-12-10T06:37:46;37.10;;;20.52;;
30398;SDS011;17195;50.838;7.214;2022-12-10T06:40:11;36.17;;;20.02;;
30398;SDS011;17195;50.838;7.214;2022-12-10T06:42:37;40.17;;;19.77;;
30398;SDS011;17195;50.838;7.214;2022-12-10T06:45:02;39.25;;;20.40;;
30398;SDS011;17195;50.838;7.214;2022-12-10T06:47:28;36.88;;;19.95;;
30398;SDS011;17195;50.838;7.214;2022-12-10T06:49:54;41.88;;;19.75;;
30398;SDS011;17195;50.838;7.214;2022-12-10T06:52:19;39.63;;;20.55;;
30398;SDS011;17195;50.838;7.214;2022-12-10T06:54:45;36.30;;;19.30;;
30398;SDS011;17195;50.838;7.214;2022-12-10T06:57:10;41.38;;;19.42;;
30398;SDS011;17195;50.838;7.214;2022-12-10T06:59:36;36.75;;;19.40;;
30398;SDS011;17195;50.838;7.214;2022-12-10T07:02:02;36.20;;;19.30;;
30398;SDS011;17195;50.838;7.214;2022-12-10T07:04:27;34.72;;;19.30;;
30398;SDS011;17195;50.838;7.214;2022-12-10T07:06:53;38.17;;;20.17;;
30398;SDS011;17195;50.838;7.214;2022-12-10T07:09:18;40.63;;;22.55;;
30398;SDS011;17195;50.838;7.214;2022-12-10T07:11:44;37.80;;;21.15;;
30398;SDS011;17195;50.838;7.214;2022-12-10T07:14:13;33.22;;;19.33;;
30398;SDS011;17195;50.838;7.214;2022-12-10T07:16:40;32.47;;;18.30;;
30398;SDS011;17195;50.838;7.214;2022-12-10T07:19:08;32.83;;;18.73;;
30398;SDS011;17195;50.838;7.214;2022-12-10T07:21:36;41.58;;;20.80;;
30398;SDS011;17195;50.838;7.214;2022-12-10T07:24:05;34.00;;;19.58;;
30398;SDS011;17195;50.838;7.214;2022-12-10T07:26:36;35.90;;;19.42;;
30398;SDS011;17195;50.838;7.214;2022-12-10T07:29:04;36.17;;;20.02;;
30398;SDS011;17195;50.838;7.214;2022-12-10T07:31:31;34.45;;;19.45;;
30398;SDS011;17195;50.838;7.214;2022-12-10T07:33:57;34.45;;;19.42;;
30398;SDS011;17195;50.838;7.214;2022-12-10T07:36:23;34.42;;;18.15;;
30398;SDS011;17195;50.838;7.214;2022-12-10T07:38:50;32.42;;;18.77;;
30398;SDS011;17195;50.838;7.214;2022-12-10T07:41:16;36.88;;;20.50;;
30398;SDS011;17195;50.838;7.214;2022-12-10T07:43:42;38.03;;;20.15;;
30398;SDS011;17195;50.838;7.214;2022-12-10T07:46:28;35.03;;;19.80;;
30398;SDS011;17195;50.838;7.214;2022-12-10T07:48:55;34.60;;;19.17;;
30398;SDS011;17195;50.838;7.214;2022-12-10T07:51:22;36.92;;;20.60;;
30398;SDS011;17195;50.838;7.214;2022-12-10T07:53:48;36.65;;;20.55;;
30398;SDS011;17195;50.838;7.214;2022-12-10T07:56:16;37.10;;;20.42;;
30398;SDS011;17195;50.838;7.214;2022-12-10T07:58:42;35.85;;;19.63;;
30398;SDS011;17195;50.838;7.214;2022-12-10T08:01:10;38.72;;;20.83;;
30398;SDS011;17195;50.838;7.214;2022-12-10T08:03:47;38.05;;;19.63;;
30398;SDS011;17195;50.838;7.214;2022-12-10T08:06:16;40.35;;;21.17;;
30398;SDS011;17195;50.838;7.214;2022-12-10T08:08:44;36.60;;;20.13;;
30398;SDS011;17195;50.838;7.214;2022-12-10T08:11:11;38.28;;;19.50;;
30398;SDS011;17195;50.838;7.214;2022-12-10T08:13:37;37.03;;;20.67;;
30398;SDS011;17195;50.838;7.214;2022-12-10T08:16:07;34.72;;;19.90;;
30398;SDS011;17195;50.838;7.214;2022-12-10T08:18:35;39.55;;;21.60;;
30398;SDS011;17195;50.838;7.214;2022-12-10T08:21:05;37.60;;;21.20;;
30398;SDS011;17195;50.838;7.214;2022-12-10T08:23:36;46.88;;;27.20;;
30398;SDS011;17195;50.838;7.214;2022-12-10T08:26:02;40.50;;;22.48;;
30398;SDS011;17195;50.838;7.214;2022-12-10T08:28:32;62.85;;;37.30;;
30398;SDS011;17195;50.838;7.214;2022-12-10T08:30:58;55.17;;;32.30;;
30398;SDS011;17195;50.838;7.214;2022-12-10T08:33:24;44.83;;;24.85;;
30398;SDS011;17195;50.838;7.214;2022-12-10T08:35:50;43.88;;;23.42;;
30398;SDS011;17195;50.838;7.214;2022-12-10T08:38:15;39.83;;;21.75;;
30398;SDS011;17195;50.838;7.214;2022-12-10T08:40:41;40.50;;;21.63;;
30398;SDS011;17195;50.838;7.214;2022-12-10T08:43:07;41.85;;;22.10;;
30398;SDS011;17195;50.838;7.214;2022-12-10T08:45:33;38.20;;;21.48;;
30398;SDS011;17195;50.838;7.214;2022-12-10T08:48:00;42.30;;;24.23;;
30398;SDS011;17195;50.838;7.214;2022-12-10T08:50:26;43.85;;;25.30;;
30398;SDS011;17195;50.838;7.214;2022-12-10T08:52:52;42.08;;;23.67;;
30398;SDS011;17195;50.838;7.214;2022-12-10T08:55:18;43.47;;;22.73;;
30398;SDS011;17195;50.838;7.214;2022-12-10T08:57:43;49.83;;;26.10;;
30398;SDS011;17195;50.838;7.214;2022-12-10T09:00:09;40.50;;;23.00;;
30398;SDS011;17195;50.838;7.214;2022-12-10T09:02:35;38.20;;;21.88;;
30398;SDS011;17195;50.838;7.214;2022-12-10T09:05:00;40.88;;;21.98;;
30398;SDS011;17195;50.838;7.214;2022-12-10T09:07:26;41.03;;;22.67;;
30398;SDS011;17195;50.838;7.214;2022-12-10T09:09:51;39.80;;;22.23;;
30398;SDS011;17195;50.838;7.214;2022-12-10T09:12:17;41.35;;;23.73;;
30398;SDS011;17195;50.838;7.214;2022-12-10T09:14:43;38.22;;;22.10;;
30398;SDS011;17195;50.838;7.214;2022-12-10T09:17:08;41.03;;;22.83;;
30398;SDS011;17195;50.838;7.214;2022-12-10T09:19:34;39.60;;;22.55;;
30398;SDS011;17195;50.838;7.214;2022-12-10T09:21:59;40.60;;;23.63;;
30398;SDS011;17195;50.838;7.214;2022-12-10T09:24:25;40.55;;;22.48;;
30398;SDS011;17195;50.838;7.214;2022-12-10T09:26:51;42.70;;;24.58;;
30398;SDS011;17195;50.838;7.214;2022-12-10T09:29:16;41.47;;;23.40;;
30398;SDS011;17195;50.838;7.214;2022-12-10T09:31:42;41.78;;;23.13;;
30398;SDS011;17195;50.838;7.214;2022-12-10T09:34:07;47.42;;;25.25;;
30398;SDS011;17195;50.838;7.214;2022-12-10T09:36:33;41.30;;;24.05;;
30398;SDS011;17195;50.838;7.214;2022-12-10T09:38:59;40.05;;;22.45;;
30398;SDS011;17195;50.838;7.214;2022-12-10T09:42:12;44.42;;;24.10;;
30398;SDS011;17195;50.838;7.214;2022-12-10T09:47:06;40.85;;;22.75;;
30398;SDS011;17195;50.838;7.214;2022-12-10T09:49:38;38.15;;;22.48;;
30398;SDS011;17195;50.838;7.214;2022-12-10T09:52:19;36.87;;;20.77;;
30398;SDS011;17195;50.838;7.214;2022-12-10T09:54:49;29.83;;;16.48;;
30398;SDS011;17195;50.838;7.214;2022-12-10T09:57:24;26.80;;;15.05;;
30398;SDS011;17195;50.838;7.214;2022-12-10T09:59:53;28.80;;;15.73;;
30398;SDS011;17195;50.838;7.214;2022-12-10T10:02:21;31.90;;;16.77;;
30398;SDS011;17195;50.838;7.214;2022-12-10T10:04:50;32.53;;;17.52;;
30398;SDS011;17195;50.838;7.214;2022-12-10T10:07:19;39.20;;;21.08;;
30398;SDS011;17195;50.838;7.214;2022-12-10T10:09:50;37.95;;;22.80;;
30398;SDS011;17195;50.838;7.214;2022-12-10T10:12:23;44.30;;;23.70;;
30398;SDS011;17195;50.838;7.214;2022-12-10T10:14:48;34.25;;;20.02;;
30398;SDS011;17195;50.838;7.214;2022-12-10T10:17:21;37.75;;;21.25;;
30398;SDS011;17195;50.838;7.214;2022-12-10T10:19:52;32.33;;;18.42;;
30398;SDS011;17195;50.838;7.214;2022-12-10T10:22:18;36.25;;;19.92;;
30398;SDS011;17195;50.838;7.214;2022-12-10T10:24:44;34.92;;;19.35;;
30398;SDS011;17195;50.838;7.214;2022-12-10T10:27:15;29.13;;;16.70;;
30398;SDS011;17195;50.838;7.214;2022-12-10T10:29:48;27.17;;;16.33;;
30398;SDS011;17195;50.838;7.214;2022-12-10T10:32:19;29.52;;;16.30;;
30398;SDS011;17195;50.838;7.214;2022-12-10T10:34:46;29.55;;;15.15;;
30398;SDS011;17195;50.838;7.214;2022-12-10T10:37:19;32.33;;;16.45;;
30398;SDS011;17195;50.838;7.214;2022-12-10T10:39:52;27.38;;;15.27;;
30398;SDS011;17195;50.838;7.214;2022-12-10T10:44:52;29.45;;;16.63;;
30398;SDS011;17195;50.838;7.214;2022-12-10T10:47:31;28.30;;;15.95;;
30398;SDS011;17195;50.838;7.214;2022-12-10T10:49:58;29.95;;;16.50;;
30398;SDS011;17195;50.838;7.214;2022-12-10T10:52:27;29.52;;;16.33;;
30398;SDS011;17195;50.838;7.214;2022-12-10T10:54:54;27.70;;;15.40;;
30398;SDS011;17195;50.838;7.214;2022-12-10T10:57:25;29.58;;;16.95;;
30398;SDS011;17195;50.838;7.214;2022-12-10T11:00:00;27.48;;;15.05;;
30398;SDS011;17195;50.838;7.214;2022-12-10T11:02:34;27.60;;;14.85;;
30398;SDS011;17195;50.838;7.214;2022-12-10T11:05:07;27.52;;;15.45;;
30398;SDS011;17195;50.838;7.214;2022-12-10T11:07:40;33.33;;;15.95;;
30398;SDS011;17195;50.838;7.214;2022-12-10T11:10:20;31.20;;;15.15;;
30398;SDS011;17195;50.838;7.214;2022-12-10T11:17:49;26.05;;;15.82;;
30398;SDS011;17195;50.838;7.214;2022-12-10T11:20:20;29.83;;;15.18;;
30398;SDS011;17195;50.838;7.214;2022-12-10T11:25:23;29.88;;;16.90;;
30398;SDS011;17195;50.838;7.214;2022-12-10T11:31:11;32.58;;;17.13;;
30398;SDS011;17195;50.838;7.214;2022-12-10T11:34:14;30.42;;;16.98;;
30398;SDS011;17195;50.838;7.214;2022-12-10T11:45:20;29.13;;;16.92;;
30398;SDS011;17195;50.838;7.214;2022-12-10T11:48:13;31.35;;;17.00;;
30398;SDS011;17195;50.838;7.214;2022-12-10T11:51:06;30.25;;;15.85;;
30398;SDS011;17195;50.838;7.214;2022-12-10T12:15:05;39.28;;;19.60;;
30398;SDS011;17195;50.838;7.214;2022-12-10T12:17:43;29.45;;;17.05;;
30398;SDS011;17195;50.838;7.214;2022-12-10T12:20:22;29.95;;;17.67;;
30398;SDS011;17195;50.838;7.214;2022-12-10T12:22:57;32.33;;;18.92;;
30398;SDS011;17195;50.838;7.214;2022-12-10T12:25:46;34.78;;;19.00;;
30398;SDS011;17195;50.838;7.214;2022-12-10T12:28:25;35.45;;;19.13;;
30398;SDS011;17195;50.838;7.214;2022-12-10T12:31:08;36.53;;;19.38;;
30398;SDS011;17195;50.838;7.214;2022-12-10T12:36:16;38.80;;;19.98;;
30398;SDS011;17195;50.838;7.214;2022-12-10T12:41:26;33.38;;;18.83;;
30398;SDS011;17195;50.838;7.214;2022-12-10T12:44:17;34.92;;;19.58;;
30398;SDS011;17195;50.838;7.214;2022-12-10T12:47:11;35.88;;;19.85;;
30398;SDS011;17195;50.838;7.214;2022-12-10T12:49:58;35.83;;;20.58;;
30398;SDS011;17195;50.838;7.214;2022-12-10T12:52:48;41.05;;;21.00;;
30398;SDS011;17195;50.838;7.214;2022-12-10T12:55:22;38.78;;;20.10;;
30398;SDS011;17195;50.838;7.214;2022-12-10T12:58:12;36.47;;;20.13;;
30398;SDS011;17195;50.838;7.214;2022-12-10T13:00:45;36.17;;;19.42;;
30398;SDS011;17195;50.838;7.214;2022-12-10T13:05:55;36.63;;;20.10;;
30398;SDS011;17195;50.838;7.214;2022-12-10T13:08:41;37.40;;;20.48;;
30398;SDS011;17195;50.838;7.214;2022-12-10T13:13:38;38.58;;;20.98;;
30398;SDS011;17195;50.838;7.214;2022-12-10T13:34:40;38.05;;;20.65;;
30398;SDS011;17195;50.838;7.214;2022-12-10T13:37:13;34.67;;;17.67;;
30398;SDS011;17195;50.838;7.214;2022-12-10T13:39:47;32.08;;;19.00;;
30398;SDS011;17195;50.838;7.214;2022-12-10T13:50:03;32.90;;;19.02;;
30398;SDS011;17195;50.838;7.214;2022-12-10T13:52:32;34.17;;;18.75;;
30398;SDS011;17195;50.838;7.214;2022-12-10T13:55:19;31.13;;;18.63;;
30398;SDS011;17195;50.838;7.214;2022-12-10T14:00:20;33.75;;;19.23;;
30398;SDS011;17195;50.838;7.214;2022-12-10T14:05:55;42.08;;;21.63;;
30398;SDS011;17195;50.838;7.214;2022-12-10T14:08:38;37.28;;;19.95;;
30398;SDS011;17195;50.838;7.214;2022-12-10T14:11:12;37.70;;;20.58;;
30398;SDS011;17195;50.838;7.214;2022-12-10T14:13:46;39.88;;;21.63;;
30398;SDS011;17195;50.838;7.214;2022-12-10T14:16:16;40.33;;;21.17;;
30398;SDS011;17195;50.838;7.214;2022-12-10T14:18:49;35.53;;;20.35;;
30398;SDS011;17195;50.838;7.214;2022-12-10T14:21:22;37.92;;;21.50;;
30398;SDS011;17195;50.838;7.214;2022-12-10T14:23:49;41.25;;;22.77;;
30398;SDS011;17195;50.838;7.214;2022-12-10T14:26:16;35.10;;;20.58;;
30398;SDS011;17195;50.838;7.214;2022-12-10T14:28:54;40.67;;;21.92;;
30398;SDS011;17195;50.838;7.214;2022-12-10T14:31:33;39.67;;;23.30;;
30398;SDS011;17195;50.838;7.214;2022-12-10T14:34:07;43.40;;;23.48;;
30398;SDS011;17195;50.838;7.214;2022-12-10T14:36:44;40.70;;;21.95;;
30398;SDS011;17195;50.838;7.214;2022-12-10T14:41:45;42.97;;;22.95;;
30398;SDS011;17195;50.838;7.214;2022-12-10T14:44:14;42.97;;;22.63;;
30398;SDS011;17195;50.838;7.214;2022-12-10T14:46:41;42.30;;;22.65;;
30398;SDS011;17195;50.838;7.214;2022-12-10T14:49:19;40.90;;;22.45;;
30398;SDS011;17195;50.838;7.214;2022-12-10T14:51:48;41.90;;;20.95;;
30398;SDS011;17195;50.838;7.214;2022-12-10T14:54:30;41.30;;;22.90;;
30398;SDS011;17195;50.838;7.214;2022-12-10T14:56:59;39.63;;;21.35;;
30398;SDS011;17195;50.838;7.214;2022-12-10T14:59:30;38.83;;;21.15;;
30398;SDS011;17195;50.838;7.214;2022-12-10T15:04:41;40.33;;;20.98;;
30398;SDS011;17195;50.838;7.214;2022-12-10T15:07:14;40.53;;;22.48;;
30398;SDS011;17195;50.838;7.214;2022-12-10T15:09:49;43.60;;;23.50;;
30398;SDS011;17195;50.838;7.214;2022-12-10T15:15:13;44.45;;;23.50;;
30398;SDS011;17195;50.838;7.214;2022-12-10T15:20:24;41.85;;;23.80;;
30398;SDS011;17195;50.838;7.214;2022-12-10T15:23:25;46.85;;;24.55;;
30398;SDS011;17195;50.838;7.214;2022-12-10T15:28:29;42.90;;;23.20;;
30398;SDS011;17195;50.838;7.214;2022-12-10T15:33:48;44.88;;;22.45;;
30398;SDS011;17195;50.838;7.214;2022-12-10T15:36:31;40.13;;;22.35;;
30398;SDS011;17195;50.838;7.214;2022-12-10T15:41:45;48.92;;;25.17;;
30398;SDS011;17195;50.838;7.214;2022-12-10T15:47:04;42.47;;;22.58;;
30398;SDS011;17195;50.838;7.214;2022-12-10T15:49:48;37.47;;;20.02;;
30398;SDS011;17195;50.838;7.214;2022-12-10T15:52:16;37.65;;;20.98;;
30398;SDS011;17195;50.838;7.214;2022-12-10T15:54:44;39.92;;;21.55;;
30398;SDS011;17195;50.838;7.214;2022-12-10T15:57:21;39.33;;;20.83;;
30398;SDS011;17195;50.838;7.214;2022-12-10T15:59:55;44.75;;;24.13;;
30398;SDS011;17195;50.838;7.214;2022-12-10T16:02:25;44.25;;;23.65;;
30398;SDS011;17195;50.838;7.214;2022-12-10T16:07:36;38.35;;;21.00;;
30398;SDS011;17195;50.838;7.214;2022-12-10T16:10:02;33.83;;;19.25;;
30398;SDS011;17195;50.838;7.214;2022-12-10T16:12:29;38.50;;;20.52;;
30398;SDS011;17195;50.838;7.214;2022-12-10T16:14:55;39.35;;;22.00;;
30398;SDS011;17195;50.838;7.214;2022-12-10T16:17:24;42.42;;;22.88;;
30398;SDS011;17195;50.838;7.214;2022-12-10T16:19:50;36.67;;;20.40;;
30398;SDS011;17195;50.838;7.214;2022-12-10T16:22:16;40.45;;;20.35;;
30398;SDS011;17195;50.838;7.214;2022-12-10T16:24:41;36.70;;;19.67;;
30398;SDS011;17195;50.838;7.214;2022-12-10T16:27:10;38.42;;;21.23;;
30398;SDS011;17195;50.838;7.214;2022-12-10T16:29:38;36.83;;;19.35;;
30398;SDS011;17195;50.838;7.214;2022-12-10T16:32:04;35.97;;;20.33;;
30398;SDS011;17195;50.838;7.214;2022-12-10T16:34:30;36.97;;;20.88;;
30398;SDS011;17195;50.838;7.214;2022-12-10T16:36:55;34.42;;;19.10;;
30398;SDS011;17195;50.838;7.214;2022-12-10T16:39:21;39.63;;;20.33;;